createdAt,value
2017-07-31T00:01:13.052Z,19.90
2017-07-31T00:03:39.352Z,19.90
2017-07-31T00:06:05.625Z,19.80
2017-07-31T00:08:31.895Z,19.90
2017-07-31T00:10:58.431Z,19.70
2017-07-31T00:13:24.717Z,19.70
2017-07-31T00:15:51.009Z,19.80
2017-07-31T00:18:17.288Z,19.80
2017-07-31T00:20:43.550Z,19.80
2017-07-31T00:23:09.849Z,20.00
2017-07-31T00:25:36.098Z,20.00
2017-07-31T00:28:02.760Z,19.90
2017-07-31T00:30:29.031Z,19.90
2017-07-31T00:32:55.316Z,19.90
2017-07-31T00:35:21.610Z,19.90
2017-07-31T00:37:48.259Z,19.70
2017-07-31T00:40:14.877Z,19.80
2017-07-31T00:42:41.175Z,19.80
2017-07-31T00:45:07.464Z,19.90
2017-07-31T00:47:33.749Z,19.90
2017-07-31T00:50:00.029Z,20.00
2017-07-31T00:52:26.282Z,20.10
2017-07-31T00:54:52.590Z,20.10
2017-07-31T00:57:18.865Z,20.20
2017-07-31T00:59:45.112Z,20.20
2017-07-31T01:02:11.439Z,20.20
2017-07-31T01:04:37.733Z,20.10
2017-07-31T01:07:04.024Z,20.10
2017-07-31T01:09:30.667Z,20.10
2017-07-31T01:11:56.967Z,20.10
2017-07-31T01:14:23.208Z,20.00
2017-07-31T01:16:49.489Z,20.00
2017-07-31T01:19:15.765Z,20.00
2017-07-31T01:21:42.880Z,20.10
2017-07-31T01:24:09.174Z,20.10
2017-07-31T01:26:35.477Z,20.10
2017-07-31T01:29:02.159Z,20.10
2017-07-31T01:31:28.442Z,20.10
2017-07-31T01:33:54.743Z,20.10
2017-07-31T01:36:21.035Z,20.20
2017-07-31T01:38:47.340Z,20.10
2017-07-31T01:41:13.646Z,20.10
2017-07-31T01:43:39.951Z,20.10
2017-07-31T01:46:06.226Z,20.10
2017-07-31T01:48:32.529Z,20.10
2017-07-31T01:50:58.817Z,20.00
2017-07-31T01:53:25.132Z,19.90
2017-07-31T01:55:51.440Z,19.80
2017-07-31T01:58:18.123Z,19.80
2017-07-31T02:00:44.459Z,19.80
2017-07-31T02:03:10.766Z,19.80
2017-07-31T02:05:37.411Z,19.70
2017-07-31T02:08:03.668Z,19.80
2017-07-31T02:10:29.922Z,19.70
2017-07-31T02:12:56.214Z,19.60
2017-07-31T02:15:22.475Z,19.50
2017-07-31T02:17:48.736Z,19.50
2017-07-31T02:20:14.993Z,19.50
2017-07-31T02:22:41.261Z,19.50
2017-07-31T02:25:07.521Z,19.60
2017-07-31T02:27:33.777Z,19.60
2017-07-31T02:30:00.094Z,19.50
2017-07-31T02:32:26.332Z,19.60
2017-07-31T02:34:52.605Z,19.50
2017-07-31T02:37:18.864Z,19.50
2017-07-31T02:39:45.368Z,19.40
2017-07-31T02:42:11.645Z,19.40
2017-07-31T02:44:37.905Z,19.40
2017-07-31T02:47:04.194Z,19.40
2017-07-31T02:49:30.466Z,19.30
2017-07-31T02:51:56.771Z,19.30
2017-07-31T02:54:23.017Z,19.30
2017-07-31T02:56:49.303Z,19.20
2017-07-31T02:59:15.585Z,19.20
2017-07-31T03:01:42.306Z,19.20
2017-07-31T03:04:08.593Z,19.20
2017-07-31T03:06:34.866Z,19.20
2017-07-31T03:09:01.145Z,19.10
2017-07-31T03:11:27.766Z,19.10
2017-07-31T03:13:54.050Z,19.00
2017-07-31T03:16:20.309Z,19.00
2017-07-31T03:18:46.576Z,19.00
2017-07-31T03:21:12.831Z,18.90
2017-07-31T03:23:39.114Z,18.90
2017-07-31T03:26:05.348Z,19.00
2017-07-31T03:28:31.584Z,19.00
2017-07-31T03:30:58.252Z,18.80
2017-07-31T03:33:24.513Z,18.90
2017-07-31T03:35:50.817Z,18.80
2017-07-31T03:38:17.086Z,18.80
2017-07-31T03:40:43.358Z,18.70
2017-07-31T03:43:09.618Z,18.70
2017-07-31T03:45:35.906Z,18.70
2017-07-31T03:48:02.174Z,18.70
2017-07-31T03:50:28.433Z,18.70
2017-07-31T03:52:54.739Z,18.60
2017-07-31T03:55:21.022Z,18.60
2017-07-31T03:57:47.316Z,18.60
2017-07-31T04:00:13.559Z,18.60
2017-07-31T04:02:39.854Z,18.40
2017-07-31T04:05:06.104Z,18.40
2017-07-31T04:07:32.336Z,18.20
2017-07-31T04:09:58.612Z,18.30
2017-07-31T04:12:24.867Z,18.30
2017-07-31T04:14:51.161Z,18.30
2017-07-31T04:17:17.421Z,18.30
2017-07-31T04:19:43.697Z,18.30
2017-07-31T04:22:09.995Z,18.40
2017-07-31T04:24:36.286Z,18.40
2017-07-31T04:27:02.561Z,18.40
2017-07-31T04:29:28.828Z,18.40
2017-07-31T04:31:55.104Z,18.40
2017-07-31T04:34:21.363Z,18.50
2017-07-31T04:36:47.654Z,18.50
2017-07-31T04:39:13.929Z,18.50
2017-07-31T04:41:40.186Z,18.60
2017-07-31T04:44:06.486Z,18.50
2017-07-31T04:46:32.744Z,18.50
2017-07-31T04:48:59.049Z,18.70
2017-07-31T04:51:25.330Z,18.70
2017-07-31T04:53:51.617Z,18.80
2017-07-31T04:56:18.257Z,18.80
2017-07-31T04:58:45.181Z,18.90
2017-07-31T05:01:11.444Z,18.90
2017-07-31T05:03:37.741Z,18.90
2017-07-31T05:06:04.029Z,19.00
2017-07-31T05:08:30.285Z,19.00
2017-07-31T05:10:56.553Z,19.00
2017-07-31T05:13:22.834Z,19.00
2017-07-31T05:15:49.571Z,19.00
2017-07-31T05:18:15.864Z,19.10
2017-07-31T05:20:42.145Z,19.00
2017-07-31T05:23:08.430Z,19.00
2017-07-31T05:25:34.703Z,18.90
2017-07-31T05:28:00.978Z,18.90
2017-07-31T05:30:27.232Z,18.80
2017-07-31T05:32:53.565Z,18.80
2017-07-31T05:35:19.840Z,19.10
2017-07-31T05:37:46.114Z,19.30
2017-07-31T05:40:12.400Z,19.40
2017-07-31T05:42:39.510Z,19.60
2017-07-31T05:45:05.784Z,19.60
2017-07-31T05:47:32.033Z,19.70
2017-07-31T05:49:58.333Z,19.80
2017-07-31T05:52:24.610Z,19.70
2017-07-31T05:54:50.921Z,20.00
2017-07-31T05:57:17.188Z,20.10
2017-07-31T05:59:43.485Z,20.20
2017-07-31T06:02:09.775Z,20.40
2017-07-31T06:04:36.108Z,20.60
2017-07-31T06:07:02.396Z,20.60
2017-07-31T06:09:28.681Z,20.70
2017-07-31T06:11:54.982Z,20.50
2017-07-31T06:14:21.290Z,20.30
2017-07-31T06:16:47.607Z,20.30
2017-07-31T06:19:13.886Z,20.50
2017-07-31T06:21:40.199Z,20.60
2017-07-31T06:24:06.483Z,20.60
2017-07-31T06:26:32.808Z,20.70
2017-07-31T06:28:59.106Z,20.90
2017-07-31T06:31:25.371Z,21.10
2017-07-31T06:33:51.663Z,21.40
2017-07-31T06:36:17.944Z,21.70
2017-07-31T06:38:44.548Z,21.90
2017-07-31T06:41:11.190Z,22.20
2017-07-31T06:43:37.432Z,22.20
2017-07-31T06:46:03.717Z,22.50
2017-07-31T06:48:30.014Z,22.70
2017-07-31T06:50:56.301Z,22.70
2017-07-31T06:53:22.956Z,22.80
2017-07-31T06:55:49.253Z,22.80
2017-07-31T06:58:15.501Z,22.80
2017-07-31T07:00:41.769Z,22.70
2017-07-31T07:03:08.073Z,22.20
2017-07-31T07:05:34.405Z,22.00
2017-07-31T07:08:00.665Z,22.00
2017-07-31T07:10:26.943Z,22.10
2017-07-31T07:12:53.632Z,22.00
2017-07-31T07:15:19.889Z,22.00
2017-07-31T07:17:46.167Z,22.10
2017-07-31T07:20:12.426Z,22.30
2017-07-31T07:22:38.807Z,22.50
2017-07-31T07:25:05.108Z,22.60
2017-07-31T07:27:31.388Z,22.70
2017-07-31T07:29:57.678Z,22.60
2017-07-31T07:32:23.916Z,22.40
2017-07-31T07:34:50.193Z,22.50
2017-07-31T07:37:16.443Z,22.60
2017-07-31T07:39:42.715Z,22.90
2017-07-31T07:42:08.996Z,22.80
2017-07-31T07:44:35.323Z,22.80
2017-07-31T07:47:01.649Z,22.80
2017-07-31T07:49:27.919Z,22.90
2017-07-31T07:51:54.206Z,23.20
2017-07-31T07:54:20.505Z,23.30
2017-07-31T07:56:46.793Z,23.70
2017-07-31T07:59:13.076Z,24.10
2017-07-31T08:01:39.370Z,24.30
2017-07-31T08:04:06.034Z,23.70
2017-07-31T08:06:32.317Z,23.70
2017-07-31T08:08:58.564Z,24.00
2017-07-31T08:11:25.164Z,24.40
2017-07-31T08:13:51.426Z,24.80
2017-07-31T08:16:17.698Z,25.20
2017-07-31T08:18:44.060Z,25.00
2017-07-31T08:21:10.319Z,24.80
2017-07-31T08:23:36.626Z,25.00
2017-07-31T08:26:02.917Z,24.90
2017-07-31T08:28:29.219Z,25.00
2017-07-31T08:30:55.493Z,25.00
2017-07-31T08:33:21.770Z,25.00
2017-07-31T08:35:48.416Z,24.60
2017-07-31T08:38:14.694Z,24.60
2017-07-31T08:40:40.962Z,24.60
2017-07-31T08:43:07.278Z,24.60
2017-07-31T08:45:33.536Z,24.80
2017-07-31T08:47:59.844Z,25.20
2017-07-31T08:50:26.124Z,25.60
2017-07-31T08:52:52.904Z,26.00
2017-07-31T08:55:19.825Z,26.40
2017-07-31T08:57:46.093Z,26.60
2017-07-31T09:00:12.762Z,26.60
2017-07-31T09:02:39.042Z,26.60
2017-07-31T09:05:05.317Z,26.50
2017-07-31T09:07:31.614Z,26.40
2017-07-31T09:09:58.261Z,26.60
2017-07-31T09:12:24.917Z,26.60
2017-07-31T09:14:51.168Z,26.60
2017-07-31T09:17:17.432Z,26.70
2017-07-31T09:19:43.736Z,26.50
2017-07-31T09:22:09.997Z,26.60
2017-07-31T09:24:36.283Z,26.70
2017-07-31T09:27:02.547Z,26.70
2017-07-31T09:29:28.832Z,26.60
2017-07-31T09:31:55.146Z,26.50
2017-07-31T09:34:21.417Z,26.40
2017-07-31T09:36:47.677Z,26.30
2017-07-31T09:39:14.284Z,26.40
2017-07-31T09:41:40.564Z,26.70
2017-07-31T09:44:06.824Z,26.90
2017-07-31T09:46:33.104Z,27.40
2017-07-31T09:48:59.370Z,27.80
2017-07-31T09:51:25.653Z,27.80
2017-07-31T09:53:51.941Z,27.80
2017-07-31T09:56:18.231Z,28.20
2017-07-31T09:58:44.868Z,28.50
2017-07-31T10:01:11.963Z,28.80
2017-07-31T10:03:38.306Z,28.80
2017-07-31T10:06:04.590Z,29.30
2017-07-31T10:08:30.889Z,29.40
2017-07-31T10:10:57.182Z,29.30
2017-07-31T10:13:23.526Z,29.20
2017-07-31T10:15:49.801Z,29.00
2017-07-31T10:18:16.115Z,29.00
2017-07-31T10:20:42.766Z,29.70
2017-07-31T10:23:09.428Z,29.60
2017-07-31T10:25:35.705Z,29.60
2017-07-31T10:28:02.015Z,29.40
2017-07-31T10:30:28.285Z,29.40
2017-07-31T10:32:54.919Z,29.60
2017-07-31T10:35:21.586Z,29.30
2017-07-31T10:37:47.895Z,29.30
2017-07-31T10:40:14.490Z,29.40
2017-07-31T10:42:40.760Z,29.50
2017-07-31T10:45:07.029Z,29.70
2017-07-31T10:47:33.310Z,29.90
2017-07-31T10:49:59.992Z,30.00
2017-07-31T10:52:26.301Z,30.00
2017-07-31T10:54:52.561Z,30.10
2017-07-31T10:57:18.844Z,30.00
2017-07-31T10:59:45.135Z,29.80
2017-07-31T11:02:11.422Z,29.90
2017-07-31T11:04:37.789Z,29.80
2017-07-31T11:07:04.045Z,29.50
2017-07-31T11:09:30.344Z,29.60
2017-07-31T11:11:56.592Z,29.90
2017-07-31T11:14:22.871Z,30.30
2017-07-31T11:16:49.124Z,30.30
2017-07-31T11:19:15.418Z,30.20
2017-07-31T11:21:41.702Z,30.40
2017-07-31T11:24:07.986Z,30.80
2017-07-31T11:26:34.266Z,31.10
2017-07-31T11:29:00.983Z,31.70
2017-07-31T11:31:27.250Z,32.10
2017-07-31T11:33:53.547Z,32.40
2017-07-31T11:36:19.812Z,32.90
2017-07-31T11:38:46.090Z,33.90
2017-07-31T11:41:12.381Z,35.00
2017-07-31T11:43:38.641Z,36.50
2017-07-31T11:46:04.947Z,37.90
2017-07-31T11:48:31.552Z,40.90
2017-07-31T11:50:58.133Z,40.90
2017-07-31T11:53:24.399Z,40.90
2017-07-31T11:55:50.668Z,41.10
2017-07-31T11:58:17.309Z,42.50
2017-07-31T12:00:43.974Z,42.20
2017-07-31T12:03:10.288Z,42.20
2017-07-31T12:05:41.355Z,42.50
2017-07-31T12:08:07.656Z,42.90
2017-07-31T12:10:33.957Z,43.80
2017-07-31T12:13:00.296Z,44.40
2017-07-31T12:15:26.581Z,44.00
2017-07-31T12:17:52.854Z,45.30
2017-07-31T12:20:19.161Z,45.30
2017-07-31T12:22:45.505Z,45.20
2017-07-31T12:25:11.781Z,46.10
2017-07-31T12:27:38.040Z,47.70
2017-07-31T12:30:04.670Z,48.40
2017-07-31T12:32:30.934Z,48.70
2017-07-31T12:34:57.223Z,49.40
2017-07-31T12:37:23.499Z,49.50
2017-07-31T12:39:49.777Z,47.60
2017-07-31T12:42:16.057Z,45.40
2017-07-31T12:44:42.338Z,44.20
2017-07-31T12:47:08.620Z,44.50
2017-07-31T12:49:34.900Z,43.40
2017-07-31T12:52:01.557Z,41.00
2017-07-31T12:54:27.821Z,39.80
2017-07-31T12:56:54.092Z,39.70
2017-07-31T12:59:20.379Z,41.10
2017-07-31T13:01:46.980Z,43.30
2017-07-31T13:04:13.301Z,43.30
2017-07-31T13:06:39.573Z,45.20
2017-07-31T13:09:05.869Z,45.60
2017-07-31T13:11:32.136Z,45.20
2017-07-31T13:13:58.778Z,44.10
2017-07-31T13:16:25.425Z,44.00
2017-07-31T13:18:51.698Z,44.00
2017-07-31T13:21:17.993Z,43.90
2017-07-31T13:23:44.268Z,42.50
2017-07-31T13:26:10.994Z,40.50
2017-07-31T13:28:37.250Z,42.00
2017-07-31T13:31:03.532Z,44.90
2017-07-31T13:33:29.813Z,46.30
2017-07-31T13:35:56.118Z,47.40
2017-07-31T13:38:22.711Z,48.10
2017-07-31T13:40:49.018Z,49.50
2017-07-31T13:43:15.297Z,50.40
2017-07-31T13:45:41.594Z,50.00
2017-07-31T13:48:07.899Z,49.80
2017-07-31T13:50:34.185Z,49.40
2017-07-31T13:53:00.455Z,49.60
2017-07-31T13:55:26.737Z,49.40
2017-07-31T13:57:53.006Z,48.50
2017-07-31T14:00:19.306Z,47.00
2017-07-31T14:02:45.607Z,47.20
2017-07-31T14:05:11.888Z,47.70
2017-07-31T14:07:38.188Z,48.00
2017-07-31T14:10:04.463Z,48.70
2017-07-31T14:12:30.744Z,48.00
2017-07-31T14:14:57.031Z,45.60
2017-07-31T14:17:23.700Z,40.30
2017-07-31T14:19:50.016Z,40.20
2017-07-31T14:22:16.658Z,38.80
2017-07-31T14:24:42.962Z,36.90
2017-07-31T14:27:09.255Z,35.60
2017-07-31T14:29:35.565Z,35.00
2017-07-31T14:32:01.823Z,34.60
2017-07-31T14:34:28.117Z,34.20
2017-07-31T14:36:54.398Z,33.70
2017-07-31T14:39:20.686Z,33.40
2017-07-31T14:41:46.960Z,33.20
2017-07-31T14:44:13.616Z,33.60
2017-07-31T14:46:40.278Z,34.80
2017-07-31T14:49:06.540Z,34.80
2017-07-31T14:51:32.820Z,35.60
2017-07-31T14:53:59.089Z,35.80
2017-07-31T14:56:25.843Z,35.70
2017-07-31T14:58:52.129Z,35.30
2017-07-31T15:01:18.435Z,34.70
2017-07-31T15:03:45.170Z,34.30
2017-07-31T15:06:11.464Z,34.30
2017-07-31T15:08:37.778Z,33.90
2017-07-31T15:11:04.053Z,33.50
2017-07-31T15:13:30.350Z,33.40
2017-07-31T15:15:56.614Z,33.50
2017-07-31T15:18:22.910Z,33.80
2017-07-31T15:20:49.190Z,34.20
2017-07-31T15:23:15.785Z,34.80
2017-07-31T15:25:42.063Z,35.10
2017-07-31T15:28:08.336Z,35.10
2017-07-31T15:30:34.628Z,35.00
2017-07-31T15:33:00.877Z,35.70
2017-07-31T15:35:27.232Z,35.90
2017-07-31T15:37:53.497Z,36.70
2017-07-31T15:40:20.426Z,36.30
2017-07-31T15:42:46.706Z,36.30
2017-07-31T15:45:12.994Z,36.00
2017-07-31T15:47:39.278Z,35.80
2017-07-31T15:50:05.568Z,36.00
2017-07-31T15:52:31.861Z,35.80
2017-07-31T15:54:58.147Z,35.80
2017-07-31T15:57:24.451Z,36.20
2017-07-31T15:59:50.725Z,36.70
2017-07-31T16:02:16.995Z,36.50
2017-07-31T16:04:43.315Z,36.10
2017-07-31T16:07:09.602Z,35.50
2017-07-31T16:09:35.911Z,35.00
2017-07-31T16:12:03.891Z,34.60
2017-07-31T16:14:30.217Z,34.60
2017-07-31T16:16:56.566Z,34.40
2017-07-31T16:19:22.869Z,34.30
2017-07-31T16:21:49.134Z,34.10
2017-07-31T16:24:15.427Z,34.40
2017-07-31T16:26:41.712Z,34.60
2017-07-31T16:29:08.050Z,34.60
2017-07-31T16:31:34.347Z,34.40
2017-07-31T16:34:00.619Z,34.00
2017-07-31T16:36:26.914Z,33.60
2017-07-31T16:39:00.232Z,33.30
2017-07-31T16:41:28.516Z,32.90
2017-07-31T16:43:55.782Z,32.60
2017-07-31T16:46:22.550Z,32.10
2017-07-31T16:48:54.995Z,32.10
2017-07-31T16:51:21.690Z,31.60
2017-07-31T16:53:48.030Z,31.60
2017-07-31T16:56:15.795Z,31.50
2017-07-31T16:58:42.129Z,31.30
2017-07-31T17:01:08.863Z,31.10
2017-07-31T17:03:35.211Z,31.00
2017-07-31T17:06:02.124Z,30.80
2017-07-31T17:08:28.420Z,30.80
2017-07-31T17:10:54.725Z,30.80
2017-07-31T17:13:21.057Z,30.70
2017-07-31T17:15:47.310Z,30.60
2017-07-31T17:18:13.635Z,30.30
2017-07-31T17:20:40.281Z,30.10
2017-07-31T17:23:06.580Z,30.10
2017-07-31T17:25:32.925Z,30.00
2017-07-31T17:27:59.578Z,29.80
2017-07-31T17:30:25.883Z,29.80
2017-07-31T17:32:52.169Z,29.80
2017-07-31T17:35:18.472Z,29.80
2017-07-31T17:37:44.771Z,29.80
2017-07-31T17:40:11.058Z,29.80
2017-07-31T17:42:37.358Z,29.80
2017-07-31T17:45:03.621Z,29.80
2017-07-31T17:47:29.956Z,29.80
2017-07-31T17:49:57.468Z,29.80
2017-07-31T17:52:24.885Z,29.70
2017-07-31T17:54:51.143Z,29.70
2017-07-31T17:57:17.803Z,29.50
2017-07-31T17:59:44.129Z,29.50
2017-07-31T18:02:10.431Z,29.40
2017-07-31T18:04:36.725Z,29.40
2017-07-31T18:07:03.030Z,29.40
2017-07-31T18:09:29.627Z,29.30
2017-07-31T18:11:55.896Z,29.40
2017-07-31T18:14:22.275Z,29.40
2017-07-31T18:16:48.570Z,29.40
2017-07-31T18:19:14.867Z,29.20
2017-07-31T18:21:42.475Z,29.00
2017-07-31T18:24:08.745Z,29.00
2017-07-31T18:26:35.402Z,28.80
2017-07-31T18:29:01.693Z,28.60
2017-07-31T18:31:28.042Z,28.50
2017-07-31T18:33:54.364Z,28.30
2017-07-31T18:36:20.660Z,28.20
2017-07-31T18:38:46.974Z,28.10
2017-07-31T18:41:13.254Z,28.00
2017-07-31T18:43:39.585Z,27.80
2017-07-31T18:46:05.899Z,27.70
2017-07-31T18:48:32.206Z,27.60
2017-07-31T18:50:58.482Z,27.40
2017-07-31T18:53:25.166Z,27.10
2017-07-31T18:55:52.150Z,27.10
2017-07-31T18:58:18.873Z,27.00
2017-07-31T19:00:45.140Z,26.90
2017-07-31T19:03:11.455Z,26.80
2017-07-31T19:05:38.831Z,26.70
2017-07-31T19:08:05.094Z,26.60
2017-07-31T19:10:31.567Z,26.40
2017-07-31T19:12:57.866Z,26.30
2017-07-31T19:15:24.190Z,26.10
2017-07-31T19:17:50.506Z,26.10
2017-07-31T19:20:17.766Z,26.00
2017-07-31T19:22:44.045Z,25.90
2017-07-31T19:25:11.311Z,25.90
2017-07-31T19:27:38.595Z,25.80
2017-07-31T19:30:04.907Z,25.70
2017-07-31T19:32:31.257Z,25.70
2017-07-31T19:34:57.523Z,25.60
2017-07-31T19:37:23.855Z,25.50
2017-07-31T19:39:50.124Z,25.50
2017-07-31T19:42:17.561Z,25.30
2017-07-31T19:44:43.820Z,25.30
2017-07-31T19:47:10.840Z,25.30
2017-07-31T19:49:37.107Z,25.20
2017-07-31T19:52:03.415Z,25.10
2017-07-31T19:54:30.062Z,25.10
2017-07-31T19:56:56.418Z,25.10
2017-07-31T19:59:22.738Z,25.00
2017-07-31T20:01:50.848Z,25.00
2017-07-31T20:04:17.205Z,24.80
2017-07-31T20:06:43.851Z,24.80
2017-07-31T20:09:10.928Z,24.80
2017-07-31T20:11:37.189Z,24.80
2017-07-31T20:14:03.503Z,24.80
2017-07-31T20:16:29.813Z,24.80
2017-07-31T20:18:56.096Z,24.70
2017-07-31T20:21:22.441Z,24.60
2017-07-31T20:23:48.804Z,24.60
2017-07-31T20:26:15.108Z,24.50
2017-07-31T20:28:41.750Z,24.40
2017-07-31T20:31:09.621Z,24.40
2017-07-31T20:33:36.718Z,24.40
2017-07-31T20:36:03.015Z,24.40
2017-07-31T20:38:30.258Z,24.40
2017-07-31T20:40:56.584Z,24.30
2017-07-31T20:43:22.892Z,24.30
2017-07-31T20:45:49.131Z,24.30
2017-07-31T20:48:15.423Z,24.20
2017-07-31T20:50:41.699Z,24.20
2017-07-31T20:53:08.252Z,24.20
2017-07-31T20:55:34.540Z,24.10
2017-07-31T20:58:01.342Z,24.00
2017-07-31T21:00:27.616Z,24.00
2017-07-31T21:02:55.185Z,24.00
2017-07-31T21:05:22.434Z,24.00
2017-07-31T21:07:49.054Z,24.00
2017-07-31T21:10:15.362Z,23.90
2017-07-31T21:12:41.646Z,23.90
2017-07-31T21:15:07.953Z,23.80
2017-07-31T21:17:34.212Z,23.80
2017-07-31T21:20:00.529Z,23.70
2017-07-31T21:22:27.845Z,23.70
2017-07-31T21:24:55.812Z,23.70
2017-07-31T21:27:25.160Z,23.60
2017-07-31T21:29:53.097Z,23.60
2017-07-31T21:32:20.357Z,23.60
2017-07-31T21:34:46.681Z,23.50
2017-07-31T21:37:12.971Z,23.50
2017-07-31T21:39:40.234Z,23.50
2017-07-31T21:42:07.983Z,23.40
2017-07-31T21:44:35.782Z,23.40
2017-07-31T21:47:02.674Z,23.30
2017-07-31T21:49:29.023Z,23.30
2017-07-31T21:51:55.289Z,23.30
2017-07-31T21:54:21.564Z,23.20
2017-07-31T21:56:48.458Z,23.10
2017-07-31T21:59:14.759Z,23.10
2017-07-31T22:01:41.574Z,23.10
2017-07-31T22:04:11.015Z,22.90
2017-07-31T22:06:39.458Z,23.00
2017-07-31T22:09:08.397Z,23.00
2017-07-31T22:11:34.691Z,22.90
2017-07-31T22:14:01.489Z,22.90
2017-07-31T22:16:34.676Z,22.80
2017-07-31T22:19:01.919Z,22.80
2017-07-31T22:21:34.220Z,22.70
2017-07-31T22:24:01.479Z,22.70
2017-07-31T22:26:29.658Z,22.70
2017-07-31T22:28:55.968Z,22.70
2017-07-31T22:31:22.878Z,22.60
2017-07-31T22:33:50.097Z,22.60
2017-07-31T22:36:16.371Z,22.50
2017-07-31T22:38:42.659Z,22.50
2017-07-31T22:41:10.039Z,22.50
2017-07-31T22:43:36.320Z,22.40
2017-07-31T22:46:02.625Z,22.30
2017-07-31T22:48:30.575Z,22.40
2017-07-31T22:50:56.825Z,22.40
2017-07-31T22:53:23.997Z,22.30
2017-07-31T22:55:50.278Z,22.30
2017-07-31T22:58:17.980Z,22.20
2017-07-31T23:00:44.642Z,22.20
2017-07-31T23:03:11.918Z,22.20
2017-07-31T23:05:38.217Z,22.20
2017-07-31T23:08:06.275Z,22.20
2017-07-31T23:10:32.565Z,22.20
2017-07-31T23:12:58.846Z,22.20
2017-07-31T23:15:25.143Z,22.10
2017-07-31T23:17:51.392Z,22.10
2017-07-31T23:20:17.694Z,22.00
2017-07-31T23:22:45.845Z,22.10
2017-07-31T23:25:12.110Z,22.00
2017-07-31T23:27:39.329Z,22.00
2017-07-31T23:30:07.356Z,22.00
2017-07-31T23:32:36.213Z,21.90
2017-07-31T23:35:04.435Z,21.50
2017-07-31T23:37:30.702Z,21.50
2017-07-31T23:39:57.001Z,21.30
2017-07-31T23:42:23.277Z,21.20
2017-07-31T23:44:49.564Z,21.30
2017-07-31T23:47:15.824Z,21.30
2017-07-31T23:49:42.109Z,21.20
2017-07-31T23:52:08.365Z,21.20
2017-07-31T23:54:34.638Z,21.20
2017-07-31T23:57:00.923Z,21.20
2017-07-31T23:59:27.195Z,21.30
